sensor_id;sensor_type;location;lat;lon;timestamp;P1;P2;P0
49454;PMS5003;69710;64.656;21.218;2023-07-31T00:00:24;3;3;
49454;PMS5003;69710;64.656;21.218;2023-07-31T00:02:51;4;3;
49454;PMS5003;69710;64.656;21.218;2023-07-31T00:05:19;3;3;
49454;PMS5003;69710;64.656;21.218;2023-07-31T00:07:47;2;2;
49454;PMS5003;69710;64.656;21.218;2023-07-31T00:10:15;3;3;
49454;PMS5003;69710;64.656;21.218;2023-07-31T00:12:44;4;4;
49454;PMS5003;69710;64.656;21.218;2023-07-31T00:15:12;1;1;
49454;PMS5003;69710;64.656;21.218;2023-07-31T00:17:41;2;2;
49454;PMS5003;69710;64.656;21.218;2023-07-31T00:20:09;5;5;
49454;PMS5003;69710;64.656;21.218;2023-07-31T00:22:38;3;3;
49454;PMS5003;69710;64.656;21.218;2023-07-31T00:25:05;2;2;
49454;PMS5003;69710;64.656;21.218;2023-07-31T00:27:33;2;2;
49454;PMS5003;69710;64.656;21.218;2023-07-31T00:30:00;3;3;
49454;PMS5003;69710;64.656;21.218;2023-07-31T00:32:28;2;2;
49454;PMS5003;69710;64.656;21.218;2023-07-31T00:34:56;2;2;
49454;PMS5003;69710;64.656;21.218;2023-07-31T00:37:24;2;2;
49454;PMS5003;69710;64.656;21.218;2023-07-31T00:39:51;3;3;
49454;PMS5003;69710;64.656;21.218;2023-07-31T00:42:19;3;3;
49454;PMS5003;69710;64.656;21.218;2023-07-31T00:44:46;3;3;
49454;PMS5003;69710;64.656;21.218;2023-07-31T00:47:13;4;4;
49454;PMS5003;69710;64.656;21.218;2023-07-31T00:49:42;4;4;
49454;PMS5003;69710;64.656;21.218;2023-07-31T00:52:10;3;3;
49454;PMS5003;69710;64.656;21.218;2023-07-31T00:54:38;5;5;
49454;PMS5003;69710;64.656;21.218;2023-07-31T00:57:06;4;4;
49454;PMS5003;69710;64.656;21.218;2023-07-31T00:59:34;4;4;
49454;PMS5003;69710;64.656;21.218;2023-07-31T01:02:02;4;4;
49454;PMS5003;69710;64.656;21.218;2023-07-31T01:04:30;3;3;
49454;PMS5003;69710;64.656;21.218;2023-07-31T01:07:00;4;4;
49454;PMS5003;69710;64.656;21.218;2023-07-31T01:09:36;5;5;
49454;PMS5003;69710;64.656;21.218;2023-07-31T01:12:12;7;7;
49454;PMS5003;69710;64.656;21.218;2023-07-31T01:14:50;6;6;
49454;PMS5003;69710;64.656;21.218;2023-07-31T01:17:18;5;5;
49454;PMS5003;69710;64.656;21.218;2023-07-31T01:19:46;7;7;
49454;PMS5003;69710;64.656;21.218;2023-07-31T01:22:20;8;7;
49454;PMS5003;69710;64.656;21.218;2023-07-31T01:25:00;4;4;
49454;PMS5003;69710;64.656;21.218;2023-07-31T01:27:44;6;5;
49454;PMS5003;69710;64.656;21.218;2023-07-31T01:30:20;6;6;
49454;PMS5003;69710;64.656;21.218;2023-07-31T01:32:52;6;6;
49454;PMS5003;69710;64.656;21.218;2023-07-31T01:35:21;7;7;
49454;PMS5003;69710;64.656;21.218;2023-07-31T01:37:51;6;6;
49454;PMS5003;69710;64.656;21.218;2023-07-31T01:40:19;8;7;
49454;PMS5003;69710;64.656;21.218;2023-07-31T01:42:46;7;7;
49454;PMS5003;69710;64.656;21.218;2023-07-31T01:45:13;5;5;
49454;PMS5003;69710;64.656;21.218;2023-07-31T01:47:41;8;6;
49454;PMS5003;69710;64.656;21.218;2023-07-31T01:50:09;6;6;
49454;PMS5003;69710;64.656;21.218;2023-07-31T01:52:37;6;6;
49454;PMS5003;69710;64.656;21.218;2023-07-31T01:55:05;6;5;
49454;PMS5003;69710;64.656;21.218;2023-07-31T01:57:33;10;9;
49454;PMS5003;69710;64.656;21.218;2023-07-31T02:00:00;5;5;
49454;PMS5003;69710;64.656;21.218;2023-07-31T02:02:28;7;7;
49454;PMS5003;69710;64.656;21.218;2023-07-31T02:04:56;6;6;
49454;PMS5003;69710;64.656;21.218;2023-07-31T02:07:23;6;6;
49454;PMS5003;69710;64.656;21.218;2023-07-31T02:09:51;8;7;
49454;PMS5003;69710;64.656;21.218;2023-07-31T02:12:19;7;7;
49454;PMS5003;69710;64.656;21.218;2023-07-31T02:14:47;7;7;
49454;PMS5003;69710;64.656;21.218;2023-07-31T02:17:15;6;5;
49454;PMS5003;69710;64.656;21.218;2023-07-31T02:19:42;5;5;
49454;PMS5003;69710;64.656;21.218;2023-07-31T02:22:10;7;7;
49454;PMS5003;69710;64.656;21.218;2023-07-31T02:24:38;9;9;
49454;PMS5003;69710;64.656;21.218;2023-07-31T02:27:06;8;7;
49454;PMS5003;69710;64.656;21.218;2023-07-31T02:29:34;7;7;
49454;PMS5003;69710;64.656;21.218;2023-07-31T02:32:02;6;6;
49454;PMS5003;69710;64.656;21.218;2023-07-31T02:34:30;7;7;
49454;PMS5003;69710;64.656;21.218;2023-07-31T02:36:58;5;5;
49454;PMS5003;69710;64.656;21.218;2023-07-31T02:39:26;8;7;
49454;PMS5003;69710;64.656;21.218;2023-07-31T02:41:54;7;7;
49454;PMS5003;69710;64.656;21.218;2023-07-31T02:44:21;6;6;
49454;PMS5003;69710;64.656;21.218;2023-07-31T02:46:48;6;6;
49454;PMS5003;69710;64.656;21.218;2023-07-31T02:49:15;7;7;
49454;PMS5003;69710;64.656;21.218;2023-07-31T02:51:43;8;8;
49454;PMS5003;69710;64.656;21.218;2023-07-31T02:54:11;8;6;
49454;PMS5003;69710;64.656;21.218;2023-07-31T02:56:39;7;7;
49454;PMS5003;69710;64.656;21.218;2023-07-31T02:59:06;9;8;
49454;PMS5003;69710;64.656;21.218;2023-07-31T03:01:34;10;9;
49454;PMS5003;69710;64.656;21.218;2023-07-31T03:04:02;9;9;
49454;PMS5003;69710;64.656;21.218;2023-07-31T03:06:30;8;7;
49454;PMS5003;69710;64.656;21.218;2023-07-31T03:08:58;8;8;
49454;PMS5003;69710;64.656;21.218;2023-07-31T03:11:27;6;6;
49454;PMS5003;69710;64.656;21.218;2023-07-31T03:13:55;7;7;
49454;PMS5003;69710;64.656;21.218;2023-07-31T03:16:22;8;8;
49454;PMS5003;69710;64.656;21.218;2023-07-31T03:18:50;7;7;
49454;PMS5003;69710;64.656;21.218;2023-07-31T03:21:18;8;8;
49454;PMS5003;69710;64.656;21.218;2023-07-31T03:23:45;9;9;
49454;PMS5003;69710;64.656;21.218;2023-07-31T03:26:12;9;9;
49454;PMS5003;69710;64.656;21.218;2023-07-31T03:28:41;8;8;
49454;PMS5003;69710;64.656;21.218;2023-07-31T03:31:08;8;8;
49454;PMS5003;69710;64.656;21.218;2023-07-31T03:33:36;8;8;
49454;PMS5003;69710;64.656;21.218;2023-07-31T03:36:05;7;7;
49454;PMS5003;69710;64.656;21.218;2023-07-31T03:38:33;8;7;
49454;PMS5003;69710;64.656;21.218;2023-07-31T03:41:01;6;6;
49454;PMS5003;69710;64.656;21.218;2023-07-31T03:43:29;8;7;
49454;PMS5003;69710;64.656;21.218;2023-07-31T03:45:57;7;7;
49454;PMS5003;69710;64.656;21.218;2023-07-31T03:48:24;9;9;
49454;PMS5003;69710;64.656;21.218;2023-07-31T03:50:53;6;6;
49454;PMS5003;69710;64.656;21.218;2023-07-31T03:53:21;8;8;
49454;PMS5003;69710;64.656;21.218;2023-07-31T03:55:48;6;6;
49454;PMS5003;69710;64.656;21.218;2023-07-31T03:58:16;9;9;
49454;PMS5003;69710;64.656;21.218;2023-07-31T04:00:45;7;7;
49454;PMS5003;69710;64.656;21.218;2023-07-31T04:03:14;7;7;
49454;PMS5003;69710;64.656;21.218;2023-07-31T04:05:42;6;6;
49454;PMS5003;69710;64.656;21.218;2023-07-31T04:08:10;7;6;
49454;PMS5003;69710;64.656;21.218;2023-07-31T04:10:37;7;7;
49454;PMS5003;69710;64.656;21.218;2023-07-31T04:13:05;6;6;
49454;PMS5003;69710;64.656;21.218;2023-07-31T04:15:34;8;8;
49454;PMS5003;69710;64.656;21.218;2023-07-31T04:18:01;8;7;
49454;PMS5003;69710;64.656;21.218;2023-07-31T04:20:30;7;7;
49454;PMS5003;69710;64.656;21.218;2023-07-31T04:22:58;6;6;
49454;PMS5003;69710;64.656;21.218;2023-07-31T04:25:26;6;6;
49454;PMS5003;69710;64.656;21.218;2023-07-31T04:27:53;7;7;
49454;PMS5003;69710;64.656;21.218;2023-07-31T04:30:21;5;5;
49454;PMS5003;69710;64.656;21.218;2023-07-31T04:32:48;5;5;
49454;PMS5003;69710;64.656;21.218;2023-07-31T04:35:16;4;4;
49454;PMS5003;69710;64.656;21.218;2023-07-31T04:37:43;7;6;
49454;PMS5003;69710;64.656;21.218;2023-07-31T04:40:11;5;5;
49454;PMS5003;69710;64.656;21.218;2023-07-31T04:42:39;8;7;
49454;PMS5003;69710;64.656;21.218;2023-07-31T04:45:08;4;4;
49454;PMS5003;69710;64.656;21.218;2023-07-31T04:47:36;6;6;
49454;PMS5003;69710;64.656;21.218;2023-07-31T04:50:04;4;4;
49454;PMS5003;69710;64.656;21.218;2023-07-31T04:52:33;6;6;
49454;PMS5003;69710;64.656;21.218;2023-07-31T04:55:01;7;6;
49454;PMS5003;69710;64.656;21.218;2023-07-31T04:57:29;5;5;
49454;PMS5003;69710;64.656;21.218;2023-07-31T04:59:56;6;6;
49454;PMS5003;69710;64.656;21.218;2023-07-31T05:02:24;5;5;
49454;PMS5003;69710;64.656;21.218;2023-07-31T05:04:51;6;6;
49454;PMS5003;69710;64.656;21.218;2023-07-31T05:07:19;6;6;
49454;PMS5003;69710;64.656;21.218;2023-07-31T05:09:48;8;8;
49454;PMS5003;69710;64.656;21.218;2023-07-31T05:12:15;7;7;
49454;PMS5003;69710;64.656;21.218;2023-07-31T05:14:44;8;7;
49454;PMS5003;69710;64.656;21.218;2023-07-31T05:17:12;7;6;
49454;PMS5003;69710;64.656;21.218;2023-07-31T05:19:40;7;6;
49454;PMS5003;69710;64.656;21.218;2023-07-31T05:22:08;9;7;
49454;PMS5003;69710;64.656;21.218;2023-07-31T05:24:35;10;8;
49454;PMS5003;69710;64.656;21.218;2023-07-31T05:27:02;8;8;
49454;PMS5003;69710;64.656;21.218;2023-07-31T05:29:30;9;9;
49454;PMS5003;69710;64.656;21.218;2023-07-31T05:31:58;9;9;
49454;PMS5003;69710;64.656;21.218;2023-07-31T05:34:26;7;7;
49454;PMS5003;69710;64.656;21.218;2023-07-31T05:36:54;10;10;
49454;PMS5003;69710;64.656;21.218;2023-07-31T05:39:22;10;9;
49454;PMS5003;69710;64.656;21.218;2023-07-31T05:41:50;8;8;
49454;PMS5003;69710;64.656;21.218;2023-07-31T05:44:17;9;9;
49454;PMS5003;69710;64.656;21.218;2023-07-31T05:46:45;10;10;
49454;PMS5003;69710;64.656;21.218;2023-07-31T05:49:12;11;11;
49454;PMS5003;69710;64.656;21.218;2023-07-31T05:51:40;10;10;
49454;PMS5003;69710;64.656;21.218;2023-07-31T05:54:08;9;9;
49454;PMS5003;69710;64.656;21.218;2023-07-31T05:56:37;12;11;
49454;PMS5003;69710;64.656;21.218;2023-07-31T05:59:04;13;12;
49454;PMS5003;69710;64.656;21.218;2023-07-31T06:01:32;9;9;
49454;PMS5003;69710;64.656;21.218;2023-07-31T06:04:00;12;12;
49454;PMS5003;69710;64.656;21.218;2023-07-31T06:06:27;13;13;
49454;PMS5003;69710;64.656;21.218;2023-07-31T06:08:55;21;20;
49454;PMS5003;69710;64.656;21.218;2023-07-31T06:11:23;21;21;
49454;PMS5003;69710;64.656;21.218;2023-07-31T06:13:51;16;15;
49454;PMS5003;69710;64.656;21.218;2023-07-31T06:16:19;19;19;
49454;PMS5003;69710;64.656;21.218;2023-07-31T06:18:46;19;18;
49454;PMS5003;69710;64.656;21.218;2023-07-31T06:21:14;18;17;
49454;PMS5003;69710;64.656;21.218;2023-07-31T06:23:42;28;24;
49454;PMS5003;69710;64.656;21.218;2023-07-31T06:26:10;42;37;
49454;PMS5003;69710;64.656;21.218;2023-07-31T06:28:37;40;36;
49454;PMS5003;69710;64.656;21.218;2023-07-31T06:31:05;49;45;
49454;PMS5003;69710;64.656;21.218;2023-07-31T06:33:34;41;39;
49454;PMS5003;69710;64.656;21.218;2023-07-31T06:36:01;44;38;
49454;PMS5003;69710;64.656;21.218;2023-07-31T06:38:29;52;46;
49454;PMS5003;69710;64.656;21.218;2023-07-31T06:40:57;45;43;
49454;PMS5003;69710;64.656;21.218;2023-07-31T06:43:25;71;68;
49454;PMS5003;69710;64.656;21.218;2023-07-31T06:45:52;56;51;
49454;PMS5003;69710;64.656;21.218;2023-07-31T06:48:20;69;62;
49454;PMS5003;69710;64.656;21.218;2023-07-31T06:50:48;70;63;
49454;PMS5003;69710;64.656;21.218;2023-07-31T06:53:16;67;63;
49454;PMS5003;69710;64.656;21.218;2023-07-31T06:55:43;55;50;
49454;PMS5003;69710;64.656;21.218;2023-07-31T06:58:11;56;52;
49454;PMS5003;69710;64.656;21.218;2023-07-31T07:00:39;53;48;
49454;PMS5003;69710;64.656;21.218;2023-07-31T07:03:07;51;46;
49454;PMS5003;69710;64.656;21.218;2023-07-31T07:05:34;63;58;
49454;PMS5003;69710;64.656;21.218;2023-07-31T07:08:02;50;48;
49454;PMS5003;69710;64.656;21.218;2023-07-31T07:10:35;56;52;
49454;PMS5003;69710;64.656;21.218;2023-07-31T07:13:04;53;48;
49454;PMS5003;69710;64.656;21.218;2023-07-31T07:15:31;37;37;
49454;PMS5003;69710;64.656;21.218;2023-07-31T07:17:59;50;43;
49454;PMS5003;69710;64.656;21.218;2023-07-31T07:20:27;37;35;
49454;PMS5003;69710;64.656;21.218;2023-07-31T07:22:55;44;39;
49454;PMS5003;69710;64.656;21.218;2023-07-31T07:25:23;44;40;
49454;PMS5003;69710;64.656;21.218;2023-07-31T07:27:51;51;47;
49454;PMS5003;69710;64.656;21.218;2023-07-31T07:30:18;49;46;
49454;PMS5003;69710;64.656;21.218;2023-07-31T07:32:46;37;34;
49454;PMS5003;69710;64.656;21.218;2023-07-31T07:35:14;33;31;
49454;PMS5003;69710;64.656;21.218;2023-07-31T07:37:42;35;31;
49454;PMS5003;69710;64.656;21.218;2023-07-31T07:40:09;36;31;
49454;PMS5003;69710;64.656;21.218;2023-07-31T07:42:37;37;35;
49454;PMS5003;69710;64.656;21.218;2023-07-31T07:45:06;38;38;
49454;PMS5003;69710;64.656;21.218;2023-07-31T07:47:35;42;39;
49454;PMS5003;69710;64.656;21.218;2023-07-31T07:50:03;34;31;
49454;PMS5003;69710;64.656;21.218;2023-07-31T07:52:31;19;19;
49454;PMS5003;69710;64.656;21.218;2023-07-31T07:54:59;23;22;
49454;PMS5003;69710;64.656;21.218;2023-07-31T07:57:26;25;25;
49454;PMS5003;69710;64.656;21.218;2023-07-31T07:59:54;35;32;
49454;PMS5003;69710;64.656;21.218;2023-07-31T08:02:22;37;32;
49454;PMS5003;69710;64.656;21.218;2023-07-31T08:04:50;34;30;
49454;PMS5003;69710;64.656;21.218;2023-07-31T08:07:18;37;32;
49454;PMS5003;69710;64.656;21.218;2023-07-31T08:09:46;38;36;
49454;PMS5003;69710;64.656;21.218;2023-07-31T08:12:14;45;42;
49454;PMS5003;69710;64.656;21.218;2023-07-31T08:14:41;41;40;
49454;PMS5003;69710;64.656;21.218;2023-07-31T08:17:09;45;42;
49454;PMS5003;69710;64.656;21.218;2023-07-31T08:19:37;41;39;
49454;PMS5003;69710;64.656;21.218;2023-07-31T08:22:04;48;44;
49454;PMS5003;69710;64.656;21.218;2023-07-31T08:24:32;41;41;
49454;PMS5003;69710;64.656;21.218;2023-07-31T08:27:00;49;42;
49454;PMS5003;69710;64.656;21.218;2023-07-31T08:29:28;45;42;
49454;PMS5003;69710;64.656;21.218;2023-07-31T08:31:55;43;41;
49454;PMS5003;69710;64.656;21.218;2023-07-31T08:34:24;41;40;
49454;PMS5003;69710;64.656;21.218;2023-07-31T08:36:51;44;42;
49454;PMS5003;69710;64.656;21.218;2023-07-31T08:39:19;38;38;
49454;PMS5003;69710;64.656;21.218;2023-07-31T08:41:47;42;40;
49454;PMS5003;69710;64.656;21.218;2023-07-31T08:44:14;43;38;
49454;PMS5003;69710;64.656;21.218;2023-07-31T08:46:45;31;29;
49454;PMS5003;69710;64.656;21.218;2023-07-31T08:49:14;25;25;
49454;PMS5003;69710;64.656;21.218;2023-07-31T08:51:44;26;23;
49454;PMS5003;69710;64.656;21.218;2023-07-31T08:54:16;22;22;
49454;PMS5003;69710;64.656;21.218;2023-07-31T08:56:44;27;24;
49454;PMS5003;69710;64.656;21.218;2023-07-31T08:59:12;18;17;
49454;PMS5003;69710;64.656;21.218;2023-07-31T09:01:42;18;18;
49454;PMS5003;69710;64.656;21.218;2023-07-31T09:04:12;18;16;
49454;PMS5003;69710;64.656;21.218;2023-07-31T09:06:41;16;15;
49454;PMS5003;69710;64.656;21.218;2023-07-31T09:09:12;11;11;
49454;PMS5003;69710;64.656;21.218;2023-07-31T09:11:39;17;15;
49454;PMS5003;69710;64.656;21.218;2023-07-31T09:14:07;13;12;
49454;PMS5003;69710;64.656;21.218;2023-07-31T09:16:35;13;12;
49454;PMS5003;69710;64.656;21.218;2023-07-31T09:19:03;13;12;
49454;PMS5003;69710;64.656;21.218;2023-07-31T09:21:31;12;10;
49454;PMS5003;69710;64.656;21.218;2023-07-31T09:23:59;14;13;
49454;PMS5003;69710;64.656;21.218;2023-07-31T09:26:30;14;12;
49454;PMS5003;69710;64.656;21.218;2023-07-31T09:28:59;10;10;
49454;PMS5003;69710;64.656;21.218;2023-07-31T09:31:42;13;13;
49454;PMS5003;69710;64.656;21.218;2023-07-31T09:34:11;9;9;
49454;PMS5003;69710;64.656;21.218;2023-07-31T09:36:40;11;11;
49454;PMS5003;69710;64.656;21.218;2023-07-31T09:39:09;10;10;
49454;PMS5003;69710;64.656;21.218;2023-07-31T09:41:36;13;12;
49454;PMS5003;69710;64.656;21.218;2023-07-31T09:44:05;10;10;
49454;PMS5003;69710;64.656;21.218;2023-07-31T09:46:35;10;10;
49454;PMS5003;69710;64.656;21.218;2023-07-31T09:49:07;11;11;
49454;PMS5003;69710;64.656;21.218;2023-07-31T09:51:35;13;12;
49454;PMS5003;69710;64.656;21.218;2023-07-31T09:54:03;12;11;
49454;PMS5003;69710;64.656;21.218;2023-07-31T09:56:41;12;12;
49454;PMS5003;69710;64.656;21.218;2023-07-31T09:59:11;14;13;
49454;PMS5003;69710;64.656;21.218;2023-07-31T10:01:40;15;14;
49454;PMS5003;69710;64.656;21.218;2023-07-31T10:04:11;13;12;
49454;PMS5003;69710;64.656;21.218;2023-07-31T10:06:40;14;14;
49454;PMS5003;69710;64.656;21.218;2023-07-31T10:09:11;15;15;
49454;PMS5003;69710;64.656;21.218;2023-07-31T10:11:53;14;13;
49454;PMS5003;69710;64.656;21.218;2023-07-31T10:14:25;16;16;
49454;PMS5003;69710;64.656;21.218;2023-07-31T10:16:54;15;15;
49454;PMS5003;69710;64.656;21.218;2023-07-31T10:19:23;19;18;
49454;PMS5003;69710;64.656;21.218;2023-07-31T10:21:53;19;19;
49454;PMS5003;69710;64.656;21.218;2023-07-31T10:24:21;17;17;
49454;PMS5003;69710;64.656;21.218;2023-07-31T10:26:50;16;15;
49454;PMS5003;69710;64.656;21.218;2023-07-31T10:29:20;16;16;
49454;PMS5003;69710;64.656;21.218;2023-07-31T10:31:50;16;15;
49454;PMS5003;69710;64.656;21.218;2023-07-31T10:34:19;17;17;
49454;PMS5003;69710;64.656;21.218;2023-07-31T10:36:47;14;14;
49454;PMS5003;69710;64.656;21.218;2023-07-31T10:39:55;16;15;
49454;PMS5003;69710;64.656;21.218;2023-07-31T10:42:30;15;15;
49454;PMS5003;69710;64.656;21.218;2023-07-31T10:45:00;15;15;
49454;PMS5003;69710;64.656;21.218;2023-07-31T10:47:29;17;17;
49454;PMS5003;69710;64.656;21.218;2023-07-31T10:50:13;17;17;
49454;PMS5003;69710;64.656;21.218;2023-07-31T10:52:46;16;16;
49454;PMS5003;69710;64.656;21.218;2023-07-31T10:55:15;16;15;
49454;PMS5003;69710;64.656;21.218;2023-07-31T10:57:54;15;14;
49454;PMS5003;69710;64.656;21.218;2023-07-31T11:00:24;13;12;
49454;PMS5003;69710;64.656;21.218;2023-07-31T11:03:01;15;15;
49454;PMS5003;69710;64.656;21.218;2023-07-31T11:05:44;22;20;
49454;PMS5003;69710;64.656;21.218;2023-07-31T11:08:20;17;16;
49454;PMS5003;69710;64.656;21.218;2023-07-31T11:10:50;21;20;
49454;PMS5003;69710;64.656;21.218;2023-07-31T11:13:32;17;17;
49454;PMS5003;69710;64.656;21.218;2023-07-31T11:16:01;18;17;
49454;PMS5003;69710;64.656;21.218;2023-07-31T11:18:28;13;13;
49454;PMS5003;69710;64.656;21.218;2023-07-31T11:20:57;16;16;
49454;PMS5003;69710;64.656;21.218;2023-07-31T11:23:25;18;18;
49454;PMS5003;69710;64.656;21.218;2023-07-31T11:25:53;19;18;
49454;PMS5003;69710;64.656;21.218;2023-07-31T11:28:30;14;14;
49454;PMS5003;69710;64.656;21.218;2023-07-31T11:30:59;14;14;
49454;PMS5003;69710;64.656;21.218;2023-07-31T11:33:28;11;11;
49454;PMS5003;69710;64.656;21.218;2023-07-31T11:35:56;14;14;
49454;PMS5003;69710;64.656;21.218;2023-07-31T11:38:24;10;10;
49454;PMS5003;69710;64.656;21.218;2023-07-31T11:40:52;18;15;
49454;PMS5003;69710;64.656;21.218;2023-07-31T11:43:21;16;15;
49454;PMS5003;69710;64.656;21.218;2023-07-31T11:45:50;14;13;
49454;PMS5003;69710;64.656;21.218;2023-07-31T11:48:19;25;23;
49454;PMS5003;69710;64.656;21.218;2023-07-31T11:50:49;19;16;
49454;PMS5003;69710;64.656;21.218;2023-07-31T11:53:19;13;13;
49454;PMS5003;69710;64.656;21.218;2023-07-31T11:55:52;19;19;
49454;PMS5003;69710;64.656;21.218;2023-07-31T11:58:20;20;19;
49454;PMS5003;69710;64.656;21.218;2023-07-31T12:00:49;14;13;
49454;PMS5003;69710;64.656;21.218;2023-07-31T12:03:16;13;13;
49454;PMS5003;69710;64.656;21.218;2023-07-31T12:05:47;15;14;
49454;PMS5003;69710;64.656;21.218;2023-07-31T12:08:15;13;12;
49454;PMS5003;69710;64.656;21.218;2023-07-31T12:10:43;11;11;
49454;PMS5003;69710;64.656;21.218;2023-07-31T12:13:11;11;11;
49454;PMS5003;69710;64.656;21.218;2023-07-31T12:15:48;12;12;
49454;PMS5003;69710;64.656;21.218;2023-07-31T12:18:20;12;12;
49454;PMS5003;69710;64.656;21.218;2023-07-31T12:20:48;12;11;
49454;PMS5003;69710;64.656;21.218;2023-07-31T12:23:21;14;13;
49454;PMS5003;69710;64.656;21.218;2023-07-31T12:25:54;14;13;
49454;PMS5003;69710;64.656;21.218;2023-07-31T12:28:27;15;15;
49454;PMS5003;69710;64.656;21.218;2023-07-31T12:30:56;13;13;
49454;PMS5003;69710;64.656;21.218;2023-07-31T12:33:30;14;14;
49454;PMS5003;69710;64.656;21.218;2023-07-31T12:36:00;17;16;
49454;PMS5003;69710;64.656;21.218;2023-07-31T12:38:29;19;19;
49454;PMS5003;69710;64.656;21.218;2023-07-31T12:40:57;17;16;
49454;PMS5003;69710;64.656;21.218;2023-07-31T12:43:25;16;16;
49454;PMS5003;69710;64.656;21.218;2023-07-31T12:45:53;16;15;
49454;PMS5003;69710;64.656;21.218;2023-07-31T12:48:22;19;18;
49454;PMS5003;69710;64.656;21.218;2023-07-31T12:50:49;19;18;
49454;PMS5003;69710;64.656;21.218;2023-07-31T12:53:17;21;18;
49454;PMS5003;69710;64.656;21.218;2023-07-31T12:55:45;22;22;
49454;PMS5003;69710;64.656;21.218;2023-07-31T12:58:13;14;13;
49454;PMS5003;69710;64.656;21.218;2023-07-31T13:00:40;18;18;
49454;PMS5003;69710;64.656;21.218;2023-07-31T13:03:08;16;16;
49454;PMS5003;69710;64.656;21.218;2023-07-31T13:05:36;14;13;
49454;PMS5003;69710;64.656;21.218;2023-07-31T13:08:04;22;21;
49454;PMS5003;69710;64.656;21.218;2023-07-31T13:10:32;14;14;
49454;PMS5003;69710;64.656;21.218;2023-07-31T13:13:00;16;16;
49454;PMS5003;69710;64.656;21.218;2023-07-31T13:15:28;19;19;
49454;PMS5003;69710;64.656;21.218;2023-07-31T13:17:55;15;15;
49454;PMS5003;69710;64.656;21.218;2023-07-31T13:20:23;18;17;
49454;PMS5003;69710;64.656;21.218;2023-07-31T13:22:51;14;13;
49454;PMS5003;69710;64.656;21.218;2023-07-31T13:25:19;14;12;
49454;PMS5003;69710;64.656;21.218;2023-07-31T13:27:47;12;12;
49454;PMS5003;69710;64.656;21.218;2023-07-31T13:30:15;14;12;
49454;PMS5003;69710;64.656;21.218;2023-07-31T13:32:43;12;12;
49454;PMS5003;69710;64.656;21.218;2023-07-31T13:35:10;12;12;
49454;PMS5003;69710;64.656;21.218;2023-07-31T13:37:38;13;13;
49454;PMS5003;69710;64.656;21.218;2023-07-31T13:40:07;14;14;
49454;PMS5003;69710;64.656;21.218;2023-07-31T13:42:35;13;13;
49454;PMS5003;69710;64.656;21.218;2023-07-31T13:45:02;11;11;
49454;PMS5003;69710;64.656;21.218;2023-07-31T13:47:30;13;13;
49454;PMS5003;69710;64.656;21.218;2023-07-31T13:49:59;17;15;
49454;PMS5003;69710;64.656;21.218;2023-07-31T13:52:27;14;14;
49454;PMS5003;69710;64.656;21.218;2023-07-31T13:54:54;14;14;
49454;PMS5003;69710;64.656;21.218;2023-07-31T13:57:22;15;15;
49454;PMS5003;69710;64.656;21.218;2023-07-31T13:59:49;14;14;
49454;PMS5003;69710;64.656;21.218;2023-07-31T14:02:17;19;15;
49454;PMS5003;69710;64.656;21.218;2023-07-31T14:04:45;17;16;
49454;PMS5003;69710;64.656;21.218;2023-07-31T14:07:13;16;16;
49454;PMS5003;69710;64.656;21.218;2023-07-31T14:09:41;12;12;
49454;PMS5003;69710;64.656;21.218;2023-07-31T14:12:09;14;13;
49454;PMS5003;69710;64.656;21.218;2023-07-31T14:14:36;16;15;
49454;PMS5003;69710;64.656;21.218;2023-07-31T14:17:05;25;23;
49454;PMS5003;69710;64.656;21.218;2023-07-31T14:19:32;14;14;
49454;PMS5003;69710;64.656;21.218;2023-07-31T14:22:00;18;17;
49454;PMS5003;69710;64.656;21.218;2023-07-31T14:24:27;21;19;
49454;PMS5003;69710;64.656;21.218;2023-07-31T14:26:55;16;16;
49454;PMS5003;69710;64.656;21.218;2023-07-31T14:29:23;22;21;
49454;PMS5003;69710;64.656;21.218;2023-07-31T14:31:50;21;21;
49454;PMS5003;69710;64.656;21.218;2023-07-31T14:34:18;18;18;
49454;PMS5003;69710;64.656;21.218;2023-07-31T14:36:46;21;21;
49454;PMS5003;69710;64.656;21.218;2023-07-31T14:39:13;20;19;
49454;PMS5003;69710;64.656;21.218;2023-07-31T14:41:41;20;18;
49454;PMS5003;69710;64.656;21.218;2023-07-31T14:44:09;19;17;
49454;PMS5003;69710;64.656;21.218;2023-07-31T14:46:36;15;15;
49454;PMS5003;69710;64.656;21.218;2023-07-31T14:49:04;20;14;
49454;PMS5003;69710;64.656;21.218;2023-07-31T14:51:32;16;16;
49454;PMS5003;69710;64.656;21.218;2023-07-31T14:54:00;15;14;
49454;PMS5003;69710;64.656;21.218;2023-07-31T14:56:28;14;14;
49454;PMS5003;69710;64.656;21.218;2023-07-31T14:58:56;11;11;
49454;PMS5003;69710;64.656;21.218;2023-07-31T15:01:24;14;14;
49454;PMS5003;69710;64.656;21.218;2023-07-31T15:03:52;13;12;
49454;PMS5003;69710;64.656;21.218;2023-07-31T15:06:19;14;14;
49454;PMS5003;69710;64.656;21.218;2023-07-31T15:08:47;12;12;
49454;PMS5003;69710;64.656;21.218;2023-07-31T15:11:15;13;13;
49454;PMS5003;69710;64.656;21.218;2023-07-31T15:13:43;12;12;
49454;PMS5003;69710;64.656;21.218;2023-07-31T15:16:11;16;15;
49454;PMS5003;69710;64.656;21.218;2023-07-31T15:18:39;8;8;
49454;PMS5003;69710;64.656;21.218;2023-07-31T15:21:07;9;8;
49454;PMS5003;69710;64.656;21.218;2023-07-31T15:23:35;7;6;
49454;PMS5003;69710;64.656;21.218;2023-07-31T15:26:03;7;7;
49454;PMS5003;69710;64.656;21.218;2023-07-31T15:28:31;10;9;
49454;PMS5003;69710;64.656;21.218;2023-07-31T15:30:59;8;8;
49454;PMS5003;69710;64.656;21.218;2023-07-31T15:33:26;8;8;
49454;PMS5003;69710;64.656;21.218;2023-07-31T15:35:54;9;9;
49454;PMS5003;69710;64.656;21.218;2023-07-31T15:38:22;8;7;
49454;PMS5003;69710;64.656;21.218;2023-07-31T15:40:50;6;5;
49454;PMS5003;69710;64.656;21.218;2023-07-31T15:43:18;6;6;
49454;PMS5003;69710;64.656;21.218;2023-07-31T15:45:47;7;7;
49454;PMS5003;69710;64.656;21.218;2023-07-31T15:48:15;7;7;
49454;PMS5003;69710;64.656;21.218;2023-07-31T15:50:43;7;7;
49454;PMS5003;69710;64.656;21.218;2023-07-31T15:53:11;7;7;
49454;PMS5003;69710;64.656;21.218;2023-07-31T15:55:39;6;6;
49454;PMS5003;69710;64.656;21.218;2023-07-31T15:58:07;6;5;
49454;PMS5003;69710;64.656;21.218;2023-07-31T16:00:35;8;8;
49454;PMS5003;69710;64.656;21.218;2023-07-31T16:03:03;7;6;
49454;PMS5003;69710;64.656;21.218;2023-07-31T16:05:31;5;4;
49454;PMS5003;69710;64.656;21.218;2023-07-31T16:07:59;9;9;
49454;PMS5003;69710;64.656;21.218;2023-07-31T16:10:27;6;5;
49454;PMS5003;69710;64.656;21.218;2023-07-31T16:12:55;5;5;
49454;PMS5003;69710;64.656;21.218;2023-07-31T16:15:23;6;6;
49454;PMS5003;69710;64.656;21.218;2023-07-31T16:17:51;5;5;
49454;PMS5003;69710;64.656;21.218;2023-07-31T16:20:19;6;6;
49454;PMS5003;69710;64.656;21.218;2023-07-31T16:22:48;6;6;